sensor_id;sensor_type;location;lat;lon;timestamp;P1;durP1;ratioP1;P2;durP2;ratioP2
13423;SDS011;6783;57.758;14.922;2022-09-09T09:32:58;2.67;;;1.27;;
13423;SDS011;6783;57.758;14.922;2022-09-09T09:35:27;3.63;;;1.30;;
13423;SDS011;6783;57.758;14.922;2022-09-09T09:37:54;3.88;;;1.55;;
13423;SDS011;6783;57.758;14.922;2022-09-09T09:40:22;2.92;;;1.52;;
13423;SDS011;6783;57.758;14.922;2022-09-09T09:42:51;3.05;;;1.63;;
13423;SDS011;6783;57.758;14.922;2022-09-09T09:45:24;4.20;;;1.77;;
13423;SDS011;6783;57.758;14.922;2022-09-09T09:47:59;5.65;;;1.90;;
13423;SDS011;6783;57.758;14.922;2022-09-09T09:50:29;6.72;;;1.70;;
13423;SDS011;6783;57.758;14.922;2022-09-09T09:52:58;4.55;;;1.38;;
13423;SDS011;6783;57.758;14.922;2022-09-09T09:55:26;3.63;;;1.48;;
13423;SDS011;6783;57.758;14.922;2022-09-09T09:57:59;4.00;;;1.58;;
13423;SDS011;6783;57.758;14.922;2022-09-09T10:00:28;3.95;;;1.80;;
13423;SDS011;6783;57.758;14.922;2022-09-09T10:02:55;3.08;;;1.88;;
13423;SDS011;6783;57.758;14.922;2022-09-09T10:05:26;2.53;;;1.40;;
13423;SDS011;6783;57.758;14.922;2022-09-09T10:08:01;5.40;;;1.75;;
13423;SDS011;6783;57.758;14.922;2022-09-09T10:10:34;4.60;;;2.08;;
13423;SDS011;6783;57.758;14.922;2022-09-09T10:13:17;5.00;;;1.50;;
13423;SDS011;6783;57.758;14.922;2022-09-09T10:15:52;3.08;;;1.52;;
13423;SDS011;6783;57.758;14.922;2022-09-09T10:21:19;3.97;;;1.55;;
13423;SDS011;6783;57.758;14.922;2022-09-09T10:23:57;2.92;;;1.40;;
13423;SDS011;6783;57.758;14.922;2022-09-09T10:26:44;4.45;;;1.25;;
13423;SDS011;6783;57.758;14.922;2022-09-09T10:29:24;3.83;;;1.63;;
13423;SDS011;6783;57.758;14.922;2022-09-09T10:32:24;4.63;;;1.25;;
13423;SDS011;6783;57.758;14.922;2022-09-09T10:35:02;2.95;;;1.35;;
13423;SDS011;6783;57.758;14.922;2022-09-09T10:37:41;3.70;;;1.60;;
13423;SDS011;6783;57.758;14.922;2022-09-09T10:40:18;4.53;;;1.40;;
13423;SDS011;6783;57.758;14.922;2022-09-09T10:42:56;2.58;;;1.50;;
13423;SDS011;6783;57.758;14.922;2022-09-09T10:45:31;2.92;;;1.38;;
13423;SDS011;6783;57.758;14.922;2022-09-09T10:48:05;2.35;;;1.30;;
13423;SDS011;6783;57.758;14.922;2022-09-09T10:50:43;2.08;;;1.35;;
13423;SDS011;6783;57.758;14.922;2022-09-09T10:53:21;3.33;;;1.50;;
13423;SDS011;6783;57.758;14.922;2022-09-09T10:55:59;4.25;;;1.42;;
13423;SDS011;6783;57.758;14.922;2022-09-09T10:58:31;4.47;;;1.85;;
13423;SDS011;6783;57.758;14.922;2022-09-09T11:01:06;4.13;;;1.73;;
13423;SDS011;6783;57.758;14.922;2022-09-09T11:03:41;4.68;;;1.60;;
13423;SDS011;6783;57.758;14.922;2022-09-09T11:06:10;4.18;;;1.45;;
13423;SDS011;6783;57.758;14.922;2022-09-09T11:08:42;5.32;;;1.40;;
13423;SDS011;6783;57.758;14.922;2022-09-09T11:11:11;4.28;;;1.50;;
13423;SDS011;6783;57.758;14.922;2022-09-09T11:13:42;2.67;;;1.45;;
13423;SDS011;6783;57.758;14.922;2022-09-09T11:16:19;4.20;;;1.58;;
13423;SDS011;6783;57.758;14.922;2022-09-09T11:18:51;4.90;;;1.70;;
13423;SDS011;6783;57.758;14.922;2022-09-09T11:21:22;3.63;;;1.30;;
13423;SDS011;6783;57.758;14.922;2022-09-09T11:23:53;6.95;;;1.70;;
13423;SDS011;6783;57.758;14.922;2022-09-09T11:26:25;4.20;;;1.75;;
13423;SDS011;6783;57.758;14.922;2022-09-09T11:29:01;2.67;;;1.40;;
13423;SDS011;6783;57.758;14.922;2022-09-09T11:31:40;2.75;;;1.55;;
13423;SDS011;6783;57.758;14.922;2022-09-09T11:34:19;2.33;;;1.30;;
13423;SDS011;6783;57.758;14.922;2022-09-09T11:36:59;4.90;;;1.55;;
13423;SDS011;6783;57.758;14.922;2022-09-09T11:39:53;5.63;;;1.80;;
13423;SDS011;6783;57.758;14.922;2022-09-09T11:42:34;4.18;;;1.58;;
13423;SDS011;6783;57.758;14.922;2022-09-09T11:45:09;5.90;;;1.63;;
13423;SDS011;6783;57.758;14.922;2022-09-09T11:47:38;4.05;;;2.15;;
13423;SDS011;6783;57.758;14.922;2022-09-09T11:50:08;4.45;;;2.03;;
13423;SDS011;6783;57.758;14.922;2022-09-09T11:52:38;5.10;;;1.58;;
13423;SDS011;6783;57.758;14.922;2022-09-09T11:55:20;3.58;;;1.40;;
13423;SDS011;6783;57.758;14.922;2022-09-09T11:57:57;3.17;;;1.77;;
13423;SDS011;6783;57.758;14.922;2022-09-09T12:00:31;4.68;;;1.88;;
13423;SDS011;6783;57.758;14.922;2022-09-09T12:03:02;4.45;;;1.80;;
13423;SDS011;6783;57.758;14.922;2022-09-09T12:05:36;3.80;;;1.60;;
13423;SDS011;6783;57.758;14.922;2022-09-09T12:08:04;3.72;;;1.67;;
13423;SDS011;6783;57.758;14.922;2022-09-09T12:10:34;6.53;;;1.63;;
13423;SDS011;6783;57.758;14.922;2022-09-09T12:13:15;2.65;;;2.10;;
13423;SDS011;6783;57.758;14.922;2022-09-09T12:15:47;3.10;;;1.45;;
13423;SDS011;6783;57.758;14.922;2022-09-09T12:18:16;4.90;;;1.70;;
13423;SDS011;6783;57.758;14.922;2022-09-09T12:20:51;4.82;;;1.92;;
13423;SDS011;6783;57.758;14.922;2022-09-09T12:23:27;5.28;;;2.00;;
13423;SDS011;6783;57.758;14.922;2022-09-09T12:26:05;3.58;;;2.00;;
13423;SDS011;6783;57.758;14.922;2022-09-09T12:28:46;4.35;;;1.83;;
13423;SDS011;6783;57.758;14.922;2022-09-09T12:31:23;5.82;;;2.40;;
13423;SDS011;6783;57.758;14.922;2022-09-09T12:34:02;3.97;;;1.73;;
13423;SDS011;6783;57.758;14.922;2022-09-09T12:36:35;6.15;;;2.47;;
13423;SDS011;6783;57.758;14.922;2022-09-09T12:39:09;4.10;;;1.88;;
13423;SDS011;6783;57.758;14.922;2022-09-09T12:41:52;4.38;;;1.85;;
13423;SDS011;6783;57.758;14.922;2022-09-09T12:44:21;5.45;;;2.00;;
13423;SDS011;6783;57.758;14.922;2022-09-09T12:46:49;4.80;;;2.28;;
13423;SDS011;6783;57.758;14.922;2022-09-09T12:49:25;7.45;;;2.58;;
13423;SDS011;6783;57.758;14.922;2022-09-09T12:51:56;4.72;;;1.80;;
13423;SDS011;6783;57.758;14.922;2022-09-09T12:54:23;4.70;;;2.10;;
13423;SDS011;6783;57.758;14.922;2022-09-09T12:56:52;7.43;;;2.42;;
13423;SDS011;6783;57.758;14.922;2022-09-09T12:59:23;7.03;;;2.22;;
13423;SDS011;6783;57.758;14.922;2022-09-09T13:01:57;4.57;;;2.08;;
13423;SDS011;6783;57.758;14.922;2022-09-09T13:04:25;3.22;;;1.67;;
13423;SDS011;6783;57.758;14.922;2022-09-09T13:06:53;4.45;;;2.03;;
13423;SDS011;6783;57.758;14.922;2022-09-09T13:09:20;5.63;;;2.58;;
13423;SDS011;6783;57.758;14.922;2022-09-09T13:11:48;5.00;;;1.92;;
13423;SDS011;6783;57.758;14.922;2022-09-09T13:14:24;6.50;;;1.90;;
13423;SDS011;6783;57.758;14.922;2022-09-09T13:16:58;4.25;;;2.10;;
13423;SDS011;6783;57.758;14.922;2022-09-09T13:19:26;4.25;;;2.25;;
13423;SDS011;6783;57.758;14.922;2022-09-09T13:21:57;5.78;;;1.92;;
13423;SDS011;6783;57.758;14.922;2022-09-09T13:24:26;3.85;;;2.08;;
13423;SDS011;6783;57.758;14.922;2022-09-09T13:26:57;5.15;;;2.55;;
13423;SDS011;6783;57.758;14.922;2022-09-09T13:29:26;5.32;;;2.40;;
13423;SDS011;6783;57.758;14.922;2022-09-09T13:31:54;3.78;;;2.30;;
13423;SDS011;6783;57.758;14.922;2022-09-09T13:34:32;4.45;;;2.20;;
13423;SDS011;6783;57.758;14.922;2022-09-09T13:37:01;4.57;;;2.13;;
13423;SDS011;6783;57.758;14.922;2022-09-09T13:39:31;4.57;;;2.35;;
13423;SDS011;6783;57.758;14.922;2022-09-09T13:42:01;4.35;;;2.30;;
13423;SDS011;6783;57.758;14.922;2022-09-09T13:44:30;4.22;;;2.78;;
13423;SDS011;6783;57.758;14.922;2022-09-09T13:47:00;4.15;;;2.42;;
13423;SDS011;6783;57.758;14.922;2022-09-09T13:49:29;5.07;;;2.40;;
13423;SDS011;6783;57.758;14.922;2022-09-09T13:52:05;3.83;;;2.40;;
13423;SDS011;6783;57.758;14.922;2022-09-09T13:54:35;5.45;;;2.50;;
13423;SDS011;6783;57.758;14.922;2022-09-09T13:57:04;5.70;;;2.65;;
13423;SDS011;6783;57.758;14.922;2022-09-09T13:59:31;6.00;;;3.10;;
13423;SDS011;6783;57.758;14.922;2022-09-09T14:01:59;6.05;;;3.00;;
13423;SDS011;6783;57.758;14.922;2022-09-09T14:04:26;4.38;;;2.70;;
13423;SDS011;6783;57.758;14.922;2022-09-09T14:06:54;4.47;;;2.70;;
13423;SDS011;6783;57.758;14.922;2022-09-09T14:09:22;4.57;;;2.97;;
13423;SDS011;6783;57.758;14.922;2022-09-09T14:11:49;7.75;;;3.10;;
13423;SDS011;6783;57.758;14.922;2022-09-09T14:14:18;6.35;;;2.97;;
13423;SDS011;6783;57.758;14.922;2022-09-09T14:16:45;3.25;;;2.38;;
13423;SDS011;6783;57.758;14.922;2022-09-09T14:19:12;6.40;;;3.10;;
13423;SDS011;6783;57.758;14.922;2022-09-09T14:21:40;6.43;;;3.03;;
13423;SDS011;6783;57.758;14.922;2022-09-09T14:24:07;13.20;;;3.17;;
13423;SDS011;6783;57.758;14.922;2022-09-09T14:26:35;6.35;;;3.17;;
13423;SDS011;6783;57.758;14.922;2022-09-09T14:29:02;5.30;;;2.85;;
13423;SDS011;6783;57.758;14.922;2022-09-09T14:31:31;4.55;;;3.13;;
13423;SDS011;6783;57.758;14.922;2022-09-09T14:33:58;8.75;;;4.22;;
13423;SDS011;6783;57.758;14.922;2022-09-09T14:36:26;8.27;;;3.80;;
13423;SDS011;6783;57.758;14.922;2022-09-09T14:38:53;6.07;;;3.75;;
13423;SDS011;6783;57.758;14.922;2022-09-09T14:41:20;6.55;;;3.83;;
13423;SDS011;6783;57.758;14.922;2022-09-09T14:43:48;5.63;;;3.03;;
13423;SDS011;6783;57.758;14.922;2022-09-09T14:46:17;5.88;;;3.42;;
13423;SDS011;6783;57.758;14.922;2022-09-09T14:48:47;6.05;;;3.50;;
13423;SDS011;6783;57.758;14.922;2022-09-09T14:51:16;6.13;;;3.50;;
13423;SDS011;6783;57.758;14.922;2022-09-09T14:53:44;6.65;;;3.53;;
13423;SDS011;6783;57.758;14.922;2022-09-09T14:56:13;6.90;;;3.90;;
13423;SDS011;6783;57.758;14.922;2022-09-09T14:58:42;7.68;;;3.55;;
13423;SDS011;6783;57.758;14.922;2022-09-09T15:01:10;7.82;;;3.53;;
13423;SDS011;6783;57.758;14.922;2022-09-09T15:03:39;7.32;;;3.70;;
13423;SDS011;6783;57.758;14.922;2022-09-09T15:06:10;5.88;;;3.83;;
13423;SDS011;6783;57.758;14.922;2022-09-09T15:08:40;5.35;;;3.50;;
13423;SDS011;6783;57.758;14.922;2022-09-09T15:11:09;7.97;;;4.22;;
13423;SDS011;6783;57.758;14.922;2022-09-09T15:13:38;7.60;;;4.63;;
13423;SDS011;6783;57.758;14.922;2022-09-09T15:16:07;6.03;;;3.50;;
13423;SDS011;6783;57.758;14.922;2022-09-09T15:18:35;4.80;;;3.78;;
13423;SDS011;6783;57.758;14.922;2022-09-09T15:21:09;7.88;;;4.70;;
13423;SDS011;6783;57.758;14.922;2022-09-09T15:23:37;7.38;;;3.85;;
13423;SDS011;6783;57.758;14.922;2022-09-09T15:26:05;7.10;;;4.00;;
13423;SDS011;6783;57.758;14.922;2022-09-09T15:28:33;4.95;;;3.70;;
13423;SDS011;6783;57.758;14.922;2022-09-09T15:33:35;6.10;;;3.95;;
13423;SDS011;6783;57.758;14.922;2022-09-09T15:36:13;9.32;;;4.70;;
13423;SDS011;6783;57.758;14.922;2022-09-09T15:38:41;7.40;;;4.72;;
13423;SDS011;6783;57.758;14.922;2022-09-09T15:41:09;8.50;;;4.25;;
13423;SDS011;6783;57.758;14.922;2022-09-09T15:43:37;8.02;;;4.45;;
13423;SDS011;6783;57.758;14.922;2022-09-09T15:46:08;9.10;;;4.68;;
13423;SDS011;6783;57.758;14.922;2022-09-09T15:48:53;7.75;;;4.60;;
13423;SDS011;6783;57.758;14.922;2022-09-09T15:51:24;7.05;;;4.18;;
13423;SDS011;6783;57.758;14.922;2022-09-09T15:53:55;7.90;;;4.78;;
13423;SDS011;6783;57.758;14.922;2022-09-09T15:56:24;8.70;;;4.85;;
13423;SDS011;6783;57.758;14.922;2022-09-09T15:58:52;7.80;;;4.50;;
13423;SDS011;6783;57.758;14.922;2022-09-09T16:01:21;12.93;;;4.50;;
13423;SDS011;6783;57.758;14.922;2022-09-09T16:03:48;9.18;;;4.30;;
13423;SDS011;6783;57.758;14.922;2022-09-09T16:06:16;6.88;;;4.50;;
13423;SDS011;6783;57.758;14.922;2022-09-09T16:08:48;5.72;;;4.45;;
13423;SDS011;6783;57.758;14.922;2022-09-09T16:11:17;8.02;;;4.97;;
13423;SDS011;6783;57.758;14.922;2022-09-09T16:13:46;6.35;;;4.45;;
13423;SDS011;6783;57.758;14.922;2022-09-09T16:16:15;7.22;;;4.75;;
13423;SDS011;6783;57.758;14.922;2022-09-09T16:18:45;8.82;;;4.72;;
13423;SDS011;6783;57.758;14.922;2022-09-09T16:21:14;8.65;;;4.50;;
13423;SDS011;6783;57.758;14.922;2022-09-09T16:23:42;8.68;;;4.72;;
13423;SDS011;6783;57.758;14.922;2022-09-09T16:26:12;6.38;;;4.70;;
13423;SDS011;6783;57.758;14.922;2022-09-09T16:28:40;7.50;;;5.13;;
13423;SDS011;6783;57.758;14.922;2022-09-09T16:31:08;6.97;;;4.43;;
13423;SDS011;6783;57.758;14.922;2022-09-09T16:33:37;8.43;;;4.80;;
13423;SDS011;6783;57.758;14.922;2022-09-09T16:36:05;7.30;;;4.80;;
13423;SDS011;6783;57.758;14.922;2022-09-09T16:38:33;7.07;;;4.63;;
13423;SDS011;6783;57.758;14.922;2022-09-09T16:41:01;7.32;;;4.35;;
13423;SDS011;6783;57.758;14.922;2022-09-09T16:43:31;8.85;;;4.38;;
13423;SDS011;6783;57.758;14.922;2022-09-09T16:45:59;7.75;;;4.68;;
13423;SDS011;6783;57.758;14.922;2022-09-09T16:48:26;8.13;;;5.20;;
13423;SDS011;6783;57.758;14.922;2022-09-09T16:51:00;8.65;;;4.65;;
13423;SDS011;6783;57.758;14.922;2022-09-09T16:53:28;9.63;;;4.47;;
13423;SDS011;6783;57.758;14.922;2022-09-09T16:55:56;7.95;;;4.82;;
13423;SDS011;6783;57.758;14.922;2022-09-09T16:58:23;7.35;;;4.32;;
13423;SDS011;6783;57.758;14.922;2022-09-09T17:00:52;9.48;;;4.68;;
13423;SDS011;6783;57.758;14.922;2022-09-09T17:03:28;7.63;;;5.18;;
13423;SDS011;6783;57.758;14.922;2022-09-09T17:05:56;9.70;;;4.78;;
13423;SDS011;6783;57.758;14.922;2022-09-09T17:08:26;9.00;;;4.65;;
13423;SDS011;6783;57.758;14.922;2022-09-09T17:10:55;7.75;;;4.40;;
13423;SDS011;6783;57.758;14.922;2022-09-09T17:13:23;9.45;;;5.40;;
13423;SDS011;6783;57.758;14.922;2022-09-09T17:15:50;8.23;;;5.00;;
13423;SDS011;6783;57.758;14.922;2022-09-09T17:18:19;9.63;;;5.10;;
13423;SDS011;6783;57.758;14.922;2022-09-09T17:20:47;9.40;;;5.20;;
13423;SDS011;6783;57.758;14.922;2022-09-09T17:23:14;9.10;;;4.53;;
13423;SDS011;6783;57.758;14.922;2022-09-09T17:25:42;8.32;;;4.97;;
13423;SDS011;6783;57.758;14.922;2022-09-09T17:28:10;9.10;;;4.78;;
13423;SDS011;6783;57.758;14.922;2022-09-09T17:30:38;6.75;;;4.85;;
13423;SDS011;6783;57.758;14.922;2022-09-09T17:33:07;8.88;;;5.68;;
13423;SDS011;6783;57.758;14.922;2022-09-09T17:35:34;8.80;;;5.30;;
13423;SDS011;6783;57.758;14.922;2022-09-09T17:38:01;10.10;;;5.43;;
13423;SDS011;6783;57.758;14.922;2022-09-09T17:40:29;9.38;;;5.53;;
13423;SDS011;6783;57.758;14.922;2022-09-09T17:42:56;8.07;;;5.22;;
13423;SDS011;6783;57.758;14.922;2022-09-09T17:45:24;7.60;;;5.15;;
13423;SDS011;6783;57.758;14.922;2022-09-09T17:47:54;8.27;;;5.80;;
13423;SDS011;6783;57.758;14.922;2022-09-09T17:50:23;7.63;;;5.20;;
13423;SDS011;6783;57.758;14.922;2022-09-09T17:52:51;8.25;;;5.60;;
13423;SDS011;6783;57.758;14.922;2022-09-09T17:55:18;8.27;;;5.32;;
13423;SDS011;6783;57.758;14.922;2022-09-09T17:57:46;7.85;;;5.30;;
13423;SDS011;6783;57.758;14.922;2022-09-09T18:00:14;8.52;;;5.40;;
13423;SDS011;6783;57.758;14.922;2022-09-09T18:02:41;11.07;;;5.40;;
13423;SDS011;6783;57.758;14.922;2022-09-09T18:05:08;10.80;;;5.40;;
13423;SDS011;6783;57.758;14.922;2022-09-09T18:07:37;10.43;;;5.28;;
13423;SDS011;6783;57.758;14.922;2022-09-09T18:10:05;11.15;;;5.95;;
13423;SDS011;6783;57.758;14.922;2022-09-09T18:12:32;8.27;;;5.70;;
13423;SDS011;6783;57.758;14.922;2022-09-09T18:15:00;8.95;;;5.25;;
13423;SDS011;6783;57.758;14.922;2022-09-09T18:17:27;9.55;;;5.60;;
13423;SDS011;6783;57.758;14.922;2022-09-09T18:19:55;8.13;;;5.47;;
13423;SDS011;6783;57.758;14.922;2022-09-09T18:22:23;7.07;;;5.55;;
13423;SDS011;6783;57.758;14.922;2022-09-09T18:24:52;8.43;;;5.60;;
13423;SDS011;6783;57.758;14.922;2022-09-09T18:27:19;9.98;;;6.00;;
13423;SDS011;6783;57.758;14.922;2022-09-09T18:29:47;8.73;;;5.57;;
13423;SDS011;6783;57.758;14.922;2022-09-09T18:32:14;7.75;;;5.60;;
13423;SDS011;6783;57.758;14.922;2022-09-09T18:34:44;8.15;;;5.30;;
13423;SDS011;6783;57.758;14.922;2022-09-09T18:37:11;6.82;;;5.50;;
13423;SDS011;6783;57.758;14.922;2022-09-09T18:39:39;6.57;;;5.22;;
13423;SDS011;6783;57.758;14.922;2022-09-09T18:42:08;8.00;;;5.15;;
13423;SDS011;6783;57.758;14.922;2022-09-09T18:44:37;6.45;;;5.32;;
13423;SDS011;6783;57.758;14.922;2022-09-09T18:47:05;6.47;;;5.18;;
13423;SDS011;6783;57.758;14.922;2022-09-09T18:49:32;8.77;;;5.45;;
13423;SDS011;6783;57.758;14.922;2022-09-09T18:52:00;8.48;;;5.22;;
13423;SDS011;6783;57.758;14.922;2022-09-09T18:54:28;10.10;;;6.47;;
13423;SDS011;6783;57.758;14.922;2022-09-09T18:56:57;8.32;;;5.40;;
13423;SDS011;6783;57.758;14.922;2022-09-09T18:59:27;9.05;;;5.57;;
13423;SDS011;6783;57.758;14.922;2022-09-09T19:01:54;8.05;;;4.93;;
13423;SDS011;6783;57.758;14.922;2022-09-09T19:04:22;9.00;;;5.90;;
13423;SDS011;6783;57.758;14.922;2022-09-09T19:06:51;8.00;;;5.13;;
13423;SDS011;6783;57.758;14.922;2022-09-09T19:09:22;9.98;;;5.35;;
13423;SDS011;6783;57.758;14.922;2022-09-09T19:11:50;7.45;;;5.32;;
13423;SDS011;6783;57.758;14.922;2022-09-09T19:14:18;8.27;;;5.10;;
13423;SDS011;6783;57.758;14.922;2022-09-09T19:16:47;7.35;;;4.78;;
13423;SDS011;6783;57.758;14.922;2022-09-09T19:19:16;8.45;;;4.85;;
13423;SDS011;6783;57.758;14.922;2022-09-09T19:21:44;7.38;;;4.72;;
13423;SDS011;6783;57.758;14.922;2022-09-09T19:24:13;6.85;;;4.65;;
13423;SDS011;6783;57.758;14.922;2022-09-09T19:26:43;9.13;;;5.65;;
13423;SDS011;6783;57.758;14.922;2022-09-09T19:29:12;5.88;;;4.55;;
13423;SDS011;6783;57.758;14.922;2022-09-09T19:31:41;9.63;;;4.70;;
13423;SDS011;6783;57.758;14.922;2022-09-09T19:34:10;8.27;;;4.63;;
13423;SDS011;6783;57.758;14.922;2022-09-09T19:36:38;10.48;;;4.78;;
13423;SDS011;6783;57.758;14.922;2022-09-09T19:39:07;9.82;;;5.20;;
13423;SDS011;6783;57.758;14.922;2022-09-09T19:41:34;6.50;;;4.90;;
13423;SDS011;6783;57.758;14.922;2022-09-09T19:44:03;7.55;;;4.55;;
13423;SDS011;6783;57.758;14.922;2022-09-09T19:46:31;7.68;;;5.05;;
13423;SDS011;6783;57.758;14.922;2022-09-09T19:49:00;6.72;;;4.45;;
13423;SDS011;6783;57.758;14.922;2022-09-09T19:51:29;9.18;;;4.97;;
13423;SDS011;6783;57.758;14.922;2022-09-09T19:53:59;7.57;;;5.10;;
13423;SDS011;6783;57.758;14.922;2022-09-09T19:56:28;8.15;;;5.03;;
13423;SDS011;6783;57.758;14.922;2022-09-09T19:58:57;5.88;;;4.97;;
13423;SDS011;6783;57.758;14.922;2022-09-09T20:01:25;7.95;;;4.90;;
13423;SDS011;6783;57.758;14.922;2022-09-09T20:03:53;6.70;;;4.80;;
13423;SDS011;6783;57.758;14.922;2022-09-09T20:06:24;7.35;;;4.97;;
13423;SDS011;6783;57.758;14.922;2022-09-09T20:08:54;6.97;;;5.07;;
13423;SDS011;6783;57.758;14.922;2022-09-09T20:11:22;8.32;;;4.65;;
13423;SDS011;6783;57.758;14.922;2022-09-09T20:13:50;6.97;;;4.72;;
13423;SDS011;6783;57.758;14.922;2022-09-09T20:16:18;6.47;;;4.93;;
13423;SDS011;6783;57.758;14.922;2022-09-09T20:18:47;10.02;;;4.63;;
13423;SDS011;6783;57.758;14.922;2022-09-09T20:21:17;9.38;;;4.82;;
13423;SDS011;6783;57.758;14.922;2022-09-09T20:23:45;9.50;;;4.88;;
13423;SDS011;6783;57.758;14.922;2022-09-09T20:26:15;10.30;;;5.35;;
13423;SDS011;6783;57.758;14.922;2022-09-09T20:28:45;8.60;;;4.93;;
13423;SDS011;6783;57.758;14.922;2022-09-09T20:31:14;7.28;;;4.78;;
13423;SDS011;6783;57.758;14.922;2022-09-09T20:33:44;9.90;;;5.05;;
13423;SDS011;6783;57.758;14.922;2022-09-09T20:36:12;5.93;;;4.43;;
13423;SDS011;6783;57.758;14.922;2022-09-09T20:38:41;8.15;;;4.65;;
13423;SDS011;6783;57.758;14.922;2022-09-09T20:41:09;8.27;;;5.05;;
13423;SDS011;6783;57.758;14.922;2022-09-09T20:43:40;8.18;;;4.95;;
13423;SDS011;6783;57.758;14.922;2022-09-09T20:46:12;6.13;;;4.55;;
13423;SDS011;6783;57.758;14.922;2022-09-09T20:48:42;6.55;;;4.70;;
13423;SDS011;6783;57.758;14.922;2022-09-09T20:51:09;7.25;;;4.97;;
13423;SDS011;6783;57.758;14.922;2022-09-09T20:53:37;9.40;;;4.72;;
13423;SDS011;6783;57.758;14.922;2022-09-09T20:56:05;5.93;;;4.25;;
13423;SDS011;6783;57.758;14.922;2022-09-09T20:58:33;8.05;;;5.22;;
13423;SDS011;6783;57.758;14.922;2022-09-09T21:01:03;7.60;;;4.80;;
13423;SDS011;6783;57.758;14.922;2022-09-09T21:03:32;7.05;;;4.82;;
13423;SDS011;6783;57.758;14.922;2022-09-09T21:06:01;5.63;;;4.30;;
13423;SDS011;6783;57.758;14.922;2022-09-09T21:08:29;6.72;;;4.72;;
13423;SDS011;6783;57.758;14.922;2022-09-09T21:10:56;6.55;;;4.90;;
13423;SDS011;6783;57.758;14.922;2022-09-09T21:13:26;11.13;;;4.72;;
13423;SDS011;6783;57.758;14.922;2022-09-09T21:15:54;6.38;;;4.55;;
13423;SDS011;6783;57.758;14.922;2022-09-09T21:18:24;8.48;;;5.30;;
13423;SDS011;6783;57.758;14.922;2022-09-09T21:20:53;8.02;;;4.93;;
13423;SDS011;6783;57.758;14.922;2022-09-09T21:23:21;5.57;;;4.47;;
13423;SDS011;6783;57.758;14.922;2022-09-09T21:25:49;8.73;;;5.05;;
13423;SDS011;6783;57.758;14.922;2022-09-09T21:28:16;6.55;;;4.80;;
13423;SDS011;6783;57.758;14.922;2022-09-09T21:30:46;6.18;;;4.50;;
13423;SDS011;6783;57.758;14.922;2022-09-09T21:33:14;7.28;;;4.82;;
13423;SDS011;6783;57.758;14.922;2022-09-09T21:35:44;8.07;;;4.72;;
13423;SDS011;6783;57.758;14.922;2022-09-09T21:38:12;8.15;;;5.18;;
13423;SDS011;6783;57.758;14.922;2022-09-09T21:40:41;9.25;;;5.10;;
13423;SDS011;6783;57.758;14.922;2022-09-09T21:43:10;10.18;;;5.68;;
13423;SDS011;6783;57.758;14.922;2022-09-09T21:45:38;7.45;;;5.30;;
13423;SDS011;6783;57.758;14.922;2022-09-09T21:48:06;4.97;;;4.32;;
13423;SDS011;6783;57.758;14.922;2022-09-09T21:50:35;5.80;;;4.40;;
13423;SDS011;6783;57.758;14.922;2022-09-09T21:53:04;4.80;;;3.90;;
13423;SDS011;6783;57.758;14.922;2022-09-09T21:55:34;5.57;;;3.85;;
13423;SDS011;6783;57.758;14.922;2022-09-09T21:58:02;5.80;;;4.05;;
13423;SDS011;6783;57.758;14.922;2022-09-09T22:00:30;7.22;;;4.10;;
13423;SDS011;6783;57.758;14.922;2022-09-09T22:02:58;7.20;;;4.55;;
13423;SDS011;6783;57.758;14.922;2022-09-09T22:05:26;6.20;;;3.80;;
13423;SDS011;6783;57.758;14.922;2022-09-09T22:07:54;4.60;;;3.92;;
13423;SDS011;6783;57.758;14.922;2022-09-09T22:10:22;5.28;;;4.20;;
13423;SDS011;6783;57.758;14.922;2022-09-09T22:12:51;4.68;;;3.47;;
13423;SDS011;6783;57.758;14.922;2022-09-09T22:15:18;5.20;;;3.67;;
13423;SDS011;6783;57.758;14.922;2022-09-09T22:17:46;6.50;;;3.70;;
13423;SDS011;6783;57.758;14.922;2022-09-09T22:20:13;5.57;;;3.47;;
13423;SDS011;6783;57.758;14.922;2022-09-09T22:22:40;4.13;;;3.00;;
13423;SDS011;6783;57.758;14.922;2022-09-09T22:25:08;4.15;;;3.17;;
13423;SDS011;6783;57.758;14.922;2022-09-09T22:27:37;5.43;;;3.20;;
13423;SDS011;6783;57.758;14.922;2022-09-09T22:30:05;5.90;;;3.22;;
13423;SDS011;6783;57.758;14.922;2022-09-09T22:32:34;6.07;;;3.10;;
13423;SDS011;6783;57.758;14.922;2022-09-09T22:35:01;4.07;;;2.47;;
13423;SDS011;6783;57.758;14.922;2022-09-09T22:37:28;4.63;;;3.17;;
13423;SDS011;6783;57.758;14.922;2022-09-09T22:39:56;5.13;;;3.78;;
13423;SDS011;6783;57.758;14.922;2022-09-09T22:42:25;5.82;;;3.20;;
13423;SDS011;6783;57.758;14.922;2022-09-09T22:44:53;4.50;;;3.30;;
13423;SDS011;6783;57.758;14.922;2022-09-09T22:47:21;3.63;;;3.05;;
13423;SDS011;6783;57.758;14.922;2022-09-09T22:49:49;6.75;;;3.30;;
13423;SDS011;6783;57.758;14.922;2022-09-09T22:52:16;6.72;;;3.03;;
13423;SDS011;6783;57.758;14.922;2022-09-09T22:54:43;4.85;;;2.80;;
13423;SDS011;6783;57.758;14.922;2022-09-09T22:57:11;3.65;;;2.58;;
13423;SDS011;6783;57.758;14.922;2022-09-09T22:59:38;4.38;;;2.97;;
13423;SDS011;6783;57.758;14.922;2022-09-09T23:02:08;3.15;;;2.55;;
13423;SDS011;6783;57.758;14.922;2022-09-09T23:04:37;6.47;;;2.90;;
13423;SDS011;6783;57.758;14.922;2022-09-09T23:07:04;5.53;;;2.80;;
13423;SDS011;6783;57.758;14.922;2022-09-09T23:09:32;3.97;;;2.47;;
13423;SDS011;6783;57.758;14.922;2022-09-09T23:11:59;3.97;;;2.78;;
13423;SDS011;6783;57.758;14.922;2022-09-09T23:14:27;4.32;;;2.50;;
13423;SDS011;6783;57.758;14.922;2022-09-09T23:16:57;5.28;;;2.83;;
13423;SDS011;6783;57.758;14.922;2022-09-09T23:19:28;4.45;;;2.65;;
13423;SDS011;6783;57.758;14.922;2022-09-09T23:21:55;3.00;;;2.63;;
13423;SDS011;6783;57.758;14.922;2022-09-09T23:24:24;5.38;;;2.50;;
13423;SDS011;6783;57.758;14.922;2022-09-09T23:26:51;3.28;;;2.35;;
13423;SDS011;6783;57.758;14.922;2022-09-09T23:29:19;2.97;;;2.30;;
13423;SDS011;6783;57.758;14.922;2022-09-09T23:31:46;4.95;;;2.60;;
13423;SDS011;6783;57.758;14.922;2022-09-09T23:34:13;4.75;;;2.30;;
13423;SDS011;6783;57.758;14.922;2022-09-09T23:36:43;4.97;;;2.40;;
13423;SDS011;6783;57.758;14.922;2022-09-09T23:39:11;4.95;;;2.20;;
13423;SDS011;6783;57.758;14.922;2022-09-09T23:41:38;6.60;;;2.33;;
13423;SDS011;6783;57.758;14.922;2022-09-09T23:44:06;2.22;;;2.00;;
13423;SDS011;6783;57.758;14.922;2022-09-09T23:46:35;3.80;;;2.22;;
13423;SDS011;6783;57.758;14.922;2022-09-09T23:49:03;5.32;;;2.38;;
13423;SDS011;6783;57.758;14.922;2022-09-09T23:51:32;4.05;;;2.28;;
13423;SDS011;6783;57.758;14.922;2022-09-09T23:54:01;4.32;;;2.17;;
13423;SDS011;6783;57.758;14.922;2022-09-09T23:56:30;4.28;;;2.00;;
13423;SDS011;6783;57.758;14.922;2022-09-09T23:58:58;4.13;;;2.10;;
